sensor_id;sensor_type;location;lat;lon;timestamp;temperature;humidity
32660;DHT22;19064;47.912;12.308;2023-06-22T00:02:01;20.80;99.90
32660;DHT22;19064;47.912;12.308;2023-06-22T00:04:28;20.80;99.90
32660;DHT22;19064;47.912;12.308;2023-06-22T00:06:55;20.80;99.90
32660;DHT22;19064;47.912;12.308;2023-06-22T00:09:22;20.80;99.90
32660;DHT22;19064;47.912;12.308;2023-06-22T00:11:48;20.70;99.90
32660;DHT22;19064;47.912;12.308;2023-06-22T00:14:15;20.70;99.90
32660;DHT22;19064;47.912;12.308;2023-06-22T00:16:43;20.70;99.90
32660;DHT22;19064;47.912;12.308;2023-06-22T00:19:14;20.70;99.90
32660;DHT22;19064;47.912;12.308;2023-06-22T00:21:40;20.70;99.90
32660;DHT22;19064;47.912;12.308;2023-06-22T00:24:08;20.70;99.90
32660;DHT22;19064;47.912;12.308;2023-06-22T00:26:34;20.60;99.90
32660;DHT22;19064;47.912;12.308;2023-06-22T00:29:01;20.60;99.90
32660;DHT22;19064;47.912;12.308;2023-06-22T00:31:28;20.50;99.90
32660;DHT22;19064;47.912;12.308;2023-06-22T00:33:56;20.30;99.90
32660;DHT22;19064;47.912;12.308;2023-06-22T00:36:22;20.20;99.90
32660;DHT22;19064;47.912;12.308;2023-06-22T00:38:50;20.10;99.90
32660;DHT22;19064;47.912;12.308;2023-06-22T00:41:17;20.00;99.90
32660;DHT22;19064;47.912;12.308;2023-06-22T00:43:44;20.00;99.90
32660;DHT22;19064;47.912;12.308;2023-06-22T00:46:11;20.00;99.90
32660;DHT22;19064;47.912;12.308;2023-06-22T00:48:38;20.00;99.90
32660;DHT22;19064;47.912;12.308;2023-06-22T00:51:08;20.00;99.90
32660;DHT22;19064;47.912;12.308;2023-06-22T00:53:35;20.10;99.90
32660;DHT22;19064;47.912;12.308;2023-06-22T00:56:03;20.00;99.90
32660;DHT22;19064;47.912;12.308;2023-06-22T00:58:31;20.00;99.90
32660;DHT22;19064;47.912;12.308;2023-06-22T01:00:58;20.00;99.90
32660;DHT22;19064;47.912;12.308;2023-06-22T01:03:25;20.00;99.90
32660;DHT22;19064;47.912;12.308;2023-06-22T01:05:54;19.90;99.90
32660;DHT22;19064;47.912;12.308;2023-06-22T01:08:31;19.90;99.90
32660;DHT22;19064;47.912;12.308;2023-06-22T01:11:01;19.90;99.90
32660;DHT22;19064;47.912;12.308;2023-06-22T01:13:36;19.90;99.90
32660;DHT22;19064;47.912;12.308;2023-06-22T01:16:08;19.90;99.90
32660;DHT22;19064;47.912;12.308;2023-06-22T01:18:41;19.80;99.90
32660;DHT22;19064;47.912;12.308;2023-06-22T01:21:13;19.80;99.90
32660;DHT22;19064;47.912;12.308;2023-06-22T01:23:53;19.80;99.90
32660;DHT22;19064;47.912;12.308;2023-06-22T01:26:32;19.70;99.90
32660;DHT22;19064;47.912;12.308;2023-06-22T01:29:04;19.70;99.90
32660;DHT22;19064;47.912;12.308;2023-06-22T01:31:33;19.80;99.90
32660;DHT22;19064;47.912;12.308;2023-06-22T01:34:03;19.80;99.90
32660;DHT22;19064;47.912;12.308;2023-06-22T01:36:31;19.80;99.90
32660;DHT22;19064;47.912;12.308;2023-06-22T01:38:59;19.80;99.90
32660;DHT22;19064;47.912;12.308;2023-06-22T01:41:28;19.80;99.90
32660;DHT22;19064;47.912;12.308;2023-06-22T01:43:56;19.80;99.90
32660;DHT22;19064;47.912;12.308;2023-06-22T01:46:24;19.80;99.90
32660;DHT22;19064;47.912;12.308;2023-06-22T01:48:51;19.80;99.90
32660;DHT22;19064;47.912;12.308;2023-06-22T01:51:19;19.80;99.90
32660;DHT22;19064;47.912;12.308;2023-06-22T01:53:45;19.70;99.90
32660;DHT22;19064;47.912;12.308;2023-06-22T01:56:13;19.70;99.90
32660;DHT22;19064;47.912;12.308;2023-06-22T01:58:48;19.70;99.90
32660;DHT22;19064;47.912;12.308;2023-06-22T02:01:23;19.60;99.90
32660;DHT22;19064;47.912;12.308;2023-06-22T02:03:57;19.50;99.90
32660;DHT22;19064;47.912;12.308;2023-06-22T02:06:31;19.50;99.90
32660;DHT22;19064;47.912;12.308;2023-06-22T02:09:08;19.50;99.90
32660;DHT22;19064;47.912;12.308;2023-06-22T02:11:37;19.40;99.90
32660;DHT22;19064;47.912;12.308;2023-06-22T02:14:07;19.40;99.90
32660;DHT22;19064;47.912;12.308;2023-06-22T02:16:34;19.40;99.90
32660;DHT22;19064;47.912;12.308;2023-06-22T02:19:04;19.40;99.90
32660;DHT22;19064;47.912;12.308;2023-06-22T02:21:31;19.30;99.90
32660;DHT22;19064;47.912;12.308;2023-06-22T02:23:58;19.30;99.90
32660;DHT22;19064;47.912;12.308;2023-06-22T02:26:25;19.20;99.90
32660;DHT22;19064;47.912;12.308;2023-06-22T02:28:53;19.20;99.90
32660;DHT22;19064;47.912;12.308;2023-06-22T02:31:19;19.20;99.90
32660;DHT22;19064;47.912;12.308;2023-06-22T02:33:46;19.20;99.90
32660;DHT22;19064;47.912;12.308;2023-06-22T02:36:15;19.10;99.90
32660;DHT22;19064;47.912;12.308;2023-06-22T02:38:42;19.10;99.90
32660;DHT22;19064;47.912;12.308;2023-06-22T02:41:13;19.10;99.90
32660;DHT22;19064;47.912;12.308;2023-06-22T02:43:43;19.00;99.90
32660;DHT22;19064;47.912;12.308;2023-06-22T02:46:10;19.10;99.90
32660;DHT22;19064;47.912;12.308;2023-06-22T02:48:38;19.00;99.90
32660;DHT22;19064;47.912;12.308;2023-06-22T02:51:05;19.00;99.90
32660;DHT22;19064;47.912;12.308;2023-06-22T02:53:33;19.00;99.90
32660;DHT22;19064;47.912;12.308;2023-06-22T02:56:01;19.10;99.90
32660;DHT22;19064;47.912;12.308;2023-06-22T02:58:28;19.10;99.90
32660;DHT22;19064;47.912;12.308;2023-06-22T03:00:55;19.10;99.90
32660;DHT22;19064;47.912;12.308;2023-06-22T03:03:22;19.10;99.90
32660;DHT22;19064;47.912;12.308;2023-06-22T03:05:51;19.20;99.90
32660;DHT22;19064;47.912;12.308;2023-06-22T03:08:18;19.10;99.90
32660;DHT22;19064;47.912;12.308;2023-06-22T03:10:46;19.10;99.90
32660;DHT22;19064;47.912;12.308;2023-06-22T03:13:13;19.10;99.90
32660;DHT22;19064;47.912;12.308;2023-06-22T03:15:40;19.10;99.90
32660;DHT22;19064;47.912;12.308;2023-06-22T03:18:06;19.10;99.90
32660;DHT22;19064;47.912;12.308;2023-06-22T03:20:33;19.10;99.90
32660;DHT22;19064;47.912;12.308;2023-06-22T03:23:00;19.10;99.90
32660;DHT22;19064;47.912;12.308;2023-06-22T03:25:26;19.10;99.90
32660;DHT22;19064;47.912;12.308;2023-06-22T03:27:54;19.10;99.90
32660;DHT22;19064;47.912;12.308;2023-06-22T03:30:21;19.10;99.90
32660;DHT22;19064;47.912;12.308;2023-06-22T03:32:48;19.10;99.90
32660;DHT22;19064;47.912;12.308;2023-06-22T03:35:15;19.10;99.90
32660;DHT22;19064;47.912;12.308;2023-06-22T03:37:41;19.10;99.90
32660;DHT22;19064;47.912;12.308;2023-06-22T03:40:09;19.10;99.90
32660;DHT22;19064;47.912;12.308;2023-06-22T03:42:36;19.20;99.90
32660;DHT22;19064;47.912;12.308;2023-06-22T03:45:05;19.10;99.90
32660;DHT22;19064;47.912;12.308;2023-06-22T03:47:32;19.10;99.90
32660;DHT22;19064;47.912;12.308;2023-06-22T03:49:59;19.20;99.90
32660;DHT22;19064;47.912;12.308;2023-06-22T03:52:25;19.20;99.90
32660;DHT22;19064;47.912;12.308;2023-06-22T03:54:52;19.20;99.90
32660;DHT22;19064;47.912;12.308;2023-06-22T03:57:19;19.20;99.90
32660;DHT22;19064;47.912;12.308;2023-06-22T03:59:46;19.30;99.90
32660;DHT22;19064;47.912;12.308;2023-06-22T04:02:15;19.40;99.90
32660;DHT22;19064;47.912;12.308;2023-06-22T04:04:42;19.40;99.90
32660;DHT22;19064;47.912;12.308;2023-06-22T04:07:08;19.40;99.90
32660;DHT22;19064;47.912;12.308;2023-06-22T04:09:35;19.50;99.90
32660;DHT22;19064;47.912;12.308;2023-06-22T04:12:02;19.50;99.90
32660;DHT22;19064;47.912;12.308;2023-06-22T04:14:29;19.40;99.90
32660;DHT22;19064;47.912;12.308;2023-06-22T04:16:57;19.40;99.90
32660;DHT22;19064;47.912;12.308;2023-06-22T04:19:26;19.50;99.90
32660;DHT22;19064;47.912;12.308;2023-06-22T04:21:55;19.50;99.90
32660;DHT22;19064;47.912;12.308;2023-06-22T04:24:23;19.40;99.90
32660;DHT22;19064;47.912;12.308;2023-06-22T04:26:50;19.40;99.90
32660;DHT22;19064;47.912;12.308;2023-06-22T04:29:20;19.40;99.90
32660;DHT22;19064;47.912;12.308;2023-06-22T04:31:57;19.40;99.90
32660;DHT22;19064;47.912;12.308;2023-06-22T04:34:31;19.40;99.90
32660;DHT22;19064;47.912;12.308;2023-06-22T04:36:58;19.50;99.90
32660;DHT22;19064;47.912;12.308;2023-06-22T04:39:24;19.50;99.90
32660;DHT22;19064;47.912;12.308;2023-06-22T04:41:52;19.60;99.90
32660;DHT22;19064;47.912;12.308;2023-06-22T04:44:20;19.60;99.90
32660;DHT22;19064;47.912;12.308;2023-06-22T04:46:50;19.60;99.90
32660;DHT22;19064;47.912;12.308;2023-06-22T04:49:20;19.70;99.90
32660;DHT22;19064;47.912;12.308;2023-06-22T04:51:48;19.70;99.90
32660;DHT22;19064;47.912;12.308;2023-06-22T04:54:17;19.80;99.90
32660;DHT22;19064;47.912;12.308;2023-06-22T04:56:43;19.90;99.90
32660;DHT22;19064;47.912;12.308;2023-06-22T04:59:12;20.00;99.90
32660;DHT22;19064;47.912;12.308;2023-06-22T05:01:39;20.10;99.90
32660;DHT22;19064;47.912;12.308;2023-06-22T05:04:06;20.20;99.90
32660;DHT22;19064;47.912;12.308;2023-06-22T05:06:33;20.30;99.90
32660;DHT22;19064;47.912;12.308;2023-06-22T05:09:01;20.40;99.90
32660;DHT22;19064;47.912;12.308;2023-06-22T05:11:28;20.50;99.90
32660;DHT22;19064;47.912;12.308;2023-06-22T05:13:55;20.60;99.90
32660;DHT22;19064;47.912;12.308;2023-06-22T05:16:24;20.70;99.90
32660;DHT22;19064;47.912;12.308;2023-06-22T05:18:52;20.70;99.90
32660;DHT22;19064;47.912;12.308;2023-06-22T05:21:22;20.90;99.90
32660;DHT22;19064;47.912;12.308;2023-06-22T05:23:49;21.00;99.90
32660;DHT22;19064;47.912;12.308;2023-06-22T05:26:17;21.00;99.90
32660;DHT22;19064;47.912;12.308;2023-06-22T05:28:44;21.00;99.90
32660;DHT22;19064;47.912;12.308;2023-06-22T05:31:11;21.10;99.90
32660;DHT22;19064;47.912;12.308;2023-06-22T05:33:38;21.20;99.90
32660;DHT22;19064;47.912;12.308;2023-06-22T05:36:05;21.20;99.90
32660;DHT22;19064;47.912;12.308;2023-06-22T05:38:32;21.30;99.90
32660;DHT22;19064;47.912;12.308;2023-06-22T05:40:59;21.30;99.90
32660;DHT22;19064;47.912;12.308;2023-06-22T05:43:27;21.40;99.90
32660;DHT22;19064;47.912;12.308;2023-06-22T05:45:54;21.50;99.90
32660;DHT22;19064;47.912;12.308;2023-06-22T05:48:20;21.50;99.90
32660;DHT22;19064;47.912;12.308;2023-06-22T05:50:47;21.50;99.90
32660;DHT22;19064;47.912;12.308;2023-06-22T05:53:14;21.60;99.90
32660;DHT22;19064;47.912;12.308;2023-06-22T05:55:41;21.80;99.90
32660;DHT22;19064;47.912;12.308;2023-06-22T05:58:08;21.80;99.90
32660;DHT22;19064;47.912;12.308;2023-06-22T06:00:36;21.90;99.90
32660;DHT22;19064;47.912;12.308;2023-06-22T06:03:03;22.00;99.90
32660;DHT22;19064;47.912;12.308;2023-06-22T06:05:30;22.10;99.90
32660;DHT22;19064;47.912;12.308;2023-06-22T06:07:56;22.10;99.90
32660;DHT22;19064;47.912;12.308;2023-06-22T06:10:23;22.10;99.90
32660;DHT22;19064;47.912;12.308;2023-06-22T06:12:50;22.20;99.90
32660;DHT22;19064;47.912;12.308;2023-06-22T06:15:17;22.30;99.90
32660;DHT22;19064;47.912;12.308;2023-06-22T06:17:49;22.30;99.90
32660;DHT22;19064;47.912;12.308;2023-06-22T06:20:17;22.40;99.90
32660;DHT22;19064;47.912;12.308;2023-06-22T06:22:44;22.40;99.90
32660;DHT22;19064;47.912;12.308;2023-06-22T06:25:11;22.40;99.90
32660;DHT22;19064;47.912;12.308;2023-06-22T06:27:42;22.50;99.90
32660;DHT22;19064;47.912;12.308;2023-06-22T06:30:09;22.50;99.90
32660;DHT22;19064;47.912;12.308;2023-06-22T06:32:36;22.60;99.90
32660;DHT22;19064;47.912;12.308;2023-06-22T06:35:05;22.60;99.90
32660;DHT22;19064;47.912;12.308;2023-06-22T06:37:35;22.70;99.90
32660;DHT22;19064;47.912;12.308;2023-06-22T06:40:03;22.80;99.90
32660;DHT22;19064;47.912;12.308;2023-06-22T06:42:32;22.80;99.90
32660;DHT22;19064;47.912;12.308;2023-06-22T06:44:58;23.00;99.90
32660;DHT22;19064;47.912;12.308;2023-06-22T06:47:25;23.10;99.90
32660;DHT22;19064;47.912;12.308;2023-06-22T06:49:52;23.20;99.90
32660;DHT22;19064;47.912;12.308;2023-06-22T06:52:20;23.30;99.90
32660;DHT22;19064;47.912;12.308;2023-06-22T06:54:46;23.40;99.90
32660;DHT22;19064;47.912;12.308;2023-06-22T06:57:13;23.40;99.90
32660;DHT22;19064;47.912;12.308;2023-06-22T06:59:40;23.50;99.90
32660;DHT22;19064;47.912;12.308;2023-06-22T07:02:07;23.60;99.90
32660;DHT22;19064;47.912;12.308;2023-06-22T07:04:34;23.60;99.90
32660;DHT22;19064;47.912;12.308;2023-06-22T07:07:02;23.70;99.90
32660;DHT22;19064;47.912;12.308;2023-06-22T07:09:30;23.70;99.90
32660;DHT22;19064;47.912;12.308;2023-06-22T07:11:56;23.80;99.90
32660;DHT22;19064;47.912;12.308;2023-06-22T07:14:23;23.90;99.90
32660;DHT22;19064;47.912;12.308;2023-06-22T07:16:50;24.00;99.90
32660;DHT22;19064;47.912;12.308;2023-06-22T07:19:24;24.10;99.90
32660;DHT22;19064;47.912;12.308;2023-06-22T07:21:51;24.20;99.90
32660;DHT22;19064;47.912;12.308;2023-06-22T07:24:19;24.30;99.90
32660;DHT22;19064;47.912;12.308;2023-06-22T07:26:47;24.40;99.90
32660;DHT22;19064;47.912;12.308;2023-06-22T07:29:15;24.50;99.90
32660;DHT22;19064;47.912;12.308;2023-06-22T07:31:42;24.60;99.90
32660;DHT22;19064;47.912;12.308;2023-06-22T07:34:09;24.40;99.90
32660;DHT22;19064;47.912;12.308;2023-06-22T07:36:35;24.50;99.90
32660;DHT22;19064;47.912;12.308;2023-06-22T07:39:02;24.70;99.90
32660;DHT22;19064;47.912;12.308;2023-06-22T07:41:29;24.80;99.90
32660;DHT22;19064;47.912;12.308;2023-06-22T07:43:57;24.80;99.90
32660;DHT22;19064;47.912;12.308;2023-06-22T07:46:24;24.90;99.90
32660;DHT22;19064;47.912;12.308;2023-06-22T07:48:50;24.90;99.90
32660;DHT22;19064;47.912;12.308;2023-06-22T07:51:18;25.00;99.90
32660;DHT22;19064;47.912;12.308;2023-06-22T07:53:44;25.20;99.90
32660;DHT22;19064;47.912;12.308;2023-06-22T07:56:11;25.20;99.90
32660;DHT22;19064;47.912;12.308;2023-06-22T07:58:38;25.30;99.90
32660;DHT22;19064;47.912;12.308;2023-06-22T08:01:06;25.40;99.90
32660;DHT22;19064;47.912;12.308;2023-06-22T08:03:33;25.40;99.90
32660;DHT22;19064;47.912;12.308;2023-06-22T08:06:00;25.40;99.90
32660;DHT22;19064;47.912;12.308;2023-06-22T08:08:26;25.40;99.90
32660;DHT22;19064;47.912;12.308;2023-06-22T08:10:53;25.50;99.90
32660;DHT22;19064;47.912;12.308;2023-06-22T08:13:20;25.60;99.90
32660;DHT22;19064;47.912;12.308;2023-06-22T08:15:47;25.80;99.90
32660;DHT22;19064;47.912;12.308;2023-06-22T08:18:16;25.70;99.90
32660;DHT22;19064;47.912;12.308;2023-06-22T08:20:42;25.80;99.90
32660;DHT22;19064;47.912;12.308;2023-06-22T08:23:09;25.80;99.90
32660;DHT22;19064;47.912;12.308;2023-06-22T08:25:36;25.80;99.90
32660;DHT22;19064;47.912;12.308;2023-06-22T08:28:04;25.80;99.90
32660;DHT22;19064;47.912;12.308;2023-06-22T08:30:30;25.80;99.90
32660;DHT22;19064;47.912;12.308;2023-06-22T08:32:57;25.90;99.90
32660;DHT22;19064;47.912;12.308;2023-06-22T08:35:25;26.00;99.90
32660;DHT22;19064;47.912;12.308;2023-06-22T08:37:52;26.10;99.90
32660;DHT22;19064;47.912;12.308;2023-06-22T08:40:20;26.20;99.90
32660;DHT22;19064;47.912;12.308;2023-06-22T08:42:48;26.20;99.90
32660;DHT22;19064;47.912;12.308;2023-06-22T08:45:15;26.20;99.90
32660;DHT22;19064;47.912;12.308;2023-06-22T08:47:42;26.40;99.90
32660;DHT22;19064;47.912;12.308;2023-06-22T08:50:10;26.30;99.90
32660;DHT22;19064;47.912;12.308;2023-06-22T08:52:39;26.50;99.90
32660;DHT22;19064;47.912;12.308;2023-06-22T08:55:08;26.50;99.90
32660;DHT22;19064;47.912;12.308;2023-06-22T08:57:35;26.50;99.90
32660;DHT22;19064;47.912;12.308;2023-06-22T09:00:05;26.70;99.90
32660;DHT22;19064;47.912;12.308;2023-06-22T09:02:36;26.80;99.90
32660;DHT22;19064;47.912;12.308;2023-06-22T09:05:06;26.90;99.90
32660;DHT22;19064;47.912;12.308;2023-06-22T09:07:33;27.00;99.90
32660;DHT22;19064;47.912;12.308;2023-06-22T09:10:01;27.00;99.90
32660;DHT22;19064;47.912;12.308;2023-06-22T09:12:30;27.00;99.90
32660;DHT22;19064;47.912;12.308;2023-06-22T09:14:58;27.20;99.90
32660;DHT22;19064;47.912;12.308;2023-06-22T09:17:25;27.20;99.90
32660;DHT22;19064;47.912;12.308;2023-06-22T09:19:53;27.20;99.90
32660;DHT22;19064;47.912;12.308;2023-06-22T09:22:19;27.20;99.90
32660;DHT22;19064;47.912;12.308;2023-06-22T09:24:46;27.30;99.90
32660;DHT22;19064;47.912;12.308;2023-06-22T09:27:14;27.40;99.90
32660;DHT22;19064;47.912;12.308;2023-06-22T09:29:41;27.40;99.90
32660;DHT22;19064;47.912;12.308;2023-06-22T09:32:08;27.50;99.90
32660;DHT22;19064;47.912;12.308;2023-06-22T09:34:35;27.70;99.90
32660;DHT22;19064;47.912;12.308;2023-06-22T09:37:01;27.80;99.90
32660;DHT22;19064;47.912;12.308;2023-06-22T09:39:28;28.00;99.90
32660;DHT22;19064;47.912;12.308;2023-06-22T09:41:55;28.00;99.90
32660;DHT22;19064;47.912;12.308;2023-06-22T09:44:23;28.10;99.90
32660;DHT22;19064;47.912;12.308;2023-06-22T09:46:50;28.10;99.90
32660;DHT22;19064;47.912;12.308;2023-06-22T09:49:16;28.10;99.90
32660;DHT22;19064;47.912;12.308;2023-06-22T09:51:43;28.20;99.90
32660;DHT22;19064;47.912;12.308;2023-06-22T09:54:10;28.30;99.90
32660;DHT22;19064;47.912;12.308;2023-06-22T09:56:36;28.30;99.90
32660;DHT22;19064;47.912;12.308;2023-06-22T09:59:04;28.30;99.90
32660;DHT22;19064;47.912;12.308;2023-06-22T10:01:32;28.40;99.90
32660;DHT22;19064;47.912;12.308;2023-06-22T10:03:58;28.60;99.90
32660;DHT22;19064;47.912;12.308;2023-06-22T10:06:25;28.50;99.90
32660;DHT22;19064;47.912;12.308;2023-06-22T10:08:52;28.50;99.90
32660;DHT22;19064;47.912;12.308;2023-06-22T10:11:19;28.60;99.90
32660;DHT22;19064;47.912;12.308;2023-06-22T10:13:45;28.80;99.90
32660;DHT22;19064;47.912;12.308;2023-06-22T10:16:12;28.90;99.90
32660;DHT22;19064;47.912;12.308;2023-06-22T10:18:40;29.00;99.90
32660;DHT22;19064;47.912;12.308;2023-06-22T10:21:07;29.00;99.90
32660;DHT22;19064;47.912;12.308;2023-06-22T10:23:33;29.10;99.90
32660;DHT22;19064;47.912;12.308;2023-06-22T10:26:01;29.30;99.90
32660;DHT22;19064;47.912;12.308;2023-06-22T10:28:27;29.30;99.90
32660;DHT22;19064;47.912;12.308;2023-06-22T10:30:54;29.50;99.90
32660;DHT22;19064;47.912;12.308;2023-06-22T10:33:21;29.60;98.70
32660;DHT22;19064;47.912;12.308;2023-06-22T10:35:49;29.50;99.30
32660;DHT22;19064;47.912;12.308;2023-06-22T10:38:16;29.60;99.90
32660;DHT22;19064;47.912;12.308;2023-06-22T10:40:42;29.70;99.90
32660;DHT22;19064;47.912;12.308;2023-06-22T10:43:09;29.90;99.80
32660;DHT22;19064;47.912;12.308;2023-06-22T10:45:36;29.90;99.90
32660;DHT22;19064;47.912;12.308;2023-06-22T10:48:03;30.10;99.40
32660;DHT22;19064;47.912;12.308;2023-06-22T10:50:30;30.10;99.00
32660;DHT22;19064;47.912;12.308;2023-06-22T10:52:58;30.10;98.70
32660;DHT22;19064;47.912;12.308;2023-06-22T10:55:25;30.30;99.20
32660;DHT22;19064;47.912;12.308;2023-06-22T10:57:51;30.40;99.20
32660;DHT22;19064;47.912;12.308;2023-06-22T11:00:18;30.60;98.90
32660;DHT22;19064;47.912;12.308;2023-06-22T11:02:46;30.70;98.50
32660;DHT22;19064;47.912;12.308;2023-06-22T11:05:13;30.80;97.30
32660;DHT22;19064;47.912;12.308;2023-06-22T11:07:41;30.90;97.40
32660;DHT22;19064;47.912;12.308;2023-06-22T11:10:10;31.00;97.70
32660;DHT22;19064;47.912;12.308;2023-06-22T11:12:38;31.00;98.40
32660;DHT22;19064;47.912;12.308;2023-06-22T11:15:05;31.20;98.10
32660;DHT22;19064;47.912;12.308;2023-06-22T11:17:32;31.30;98.10
32660;DHT22;19064;47.912;12.308;2023-06-22T11:19:59;31.30;97.70
32660;DHT22;19064;47.912;12.308;2023-06-22T11:22:26;31.30;98.50
32660;DHT22;19064;47.912;12.308;2023-06-22T11:24:53;31.40;98.50
32660;DHT22;19064;47.912;12.308;2023-06-22T11:27:21;31.50;97.10
32660;DHT22;19064;47.912;12.308;2023-06-22T11:29:48;31.60;96.20
32660;DHT22;19064;47.912;12.308;2023-06-22T11:32:15;31.60;97.10
32660;DHT22;19064;47.912;12.308;2023-06-22T11:34:42;31.70;96.30
32660;DHT22;19064;47.912;12.308;2023-06-22T11:37:08;31.70;95.90
32660;DHT22;19064;47.912;12.308;2023-06-22T11:39:35;31.80;95.20
32660;DHT22;19064;47.912;12.308;2023-06-22T11:42:02;31.80;94.80
32660;DHT22;19064;47.912;12.308;2023-06-22T11:44:30;31.70;95.00
32660;DHT22;19064;47.912;12.308;2023-06-22T11:46:57;31.60;92.90
32660;DHT22;19064;47.912;12.308;2023-06-22T11:49:24;31.60;93.70
32660;DHT22;19064;47.912;12.308;2023-06-22T11:51:50;31.90;94.60
32660;DHT22;19064;47.912;12.308;2023-06-22T11:54:17;32.00;93.30
32660;DHT22;19064;47.912;12.308;2023-06-22T11:56:44;32.10;93.70
32660;DHT22;19064;47.912;12.308;2023-06-22T11:59:10;32.10;92.70
32660;DHT22;19064;47.912;12.308;2023-06-22T12:01:38;32.10;92.50
32660;DHT22;19064;47.912;12.308;2023-06-22T12:04:05;32.20;93.50
32660;DHT22;19064;47.912;12.308;2023-06-22T12:06:32;32.30;93.70
32660;DHT22;19064;47.912;12.308;2023-06-22T12:09:00;32.30;93.90
32660;DHT22;19064;47.912;12.308;2023-06-22T12:11:27;32.30;93.70
32660;DHT22;19064;47.912;12.308;2023-06-22T12:13:54;32.40;95.00
32660;DHT22;19064;47.912;12.308;2023-06-22T12:16:21;32.60;94.80
32660;DHT22;19064;47.912;12.308;2023-06-22T12:18:51;32.60;93.20
32660;DHT22;19064;47.912;12.308;2023-06-22T12:21:18;32.60;94.10
32660;DHT22;19064;47.912;12.308;2023-06-22T12:23:44;32.60;93.10
32660;DHT22;19064;47.912;12.308;2023-06-22T12:26:11;32.60;92.90
32660;DHT22;19064;47.912;12.308;2023-06-22T12:28:38;32.70;94.30
32660;DHT22;19064;47.912;12.308;2023-06-22T12:31:04;32.80;94.10
32660;DHT22;19064;47.912;12.308;2023-06-22T12:33:31;32.70;94.10
32660;DHT22;19064;47.912;12.308;2023-06-22T12:35:59;32.60;93.70
32660;DHT22;19064;47.912;12.308;2023-06-22T12:38:26;32.60;93.50
32660;DHT22;19064;47.912;12.308;2023-06-22T12:40:52;32.70;94.00
32660;DHT22;19064;47.912;12.308;2023-06-22T12:43:19;32.80;94.20
32660;DHT22;19064;47.912;12.308;2023-06-22T12:45:46;32.80;93.60
32660;DHT22;19064;47.912;12.308;2023-06-22T12:48:13;32.80;93.30
32660;DHT22;19064;47.912;12.308;2023-06-22T12:50:39;32.80;93.70
32660;DHT22;19064;47.912;12.308;2023-06-22T12:53:07;32.90;94.00
32660;DHT22;19064;47.912;12.308;2023-06-22T12:55:34;33.00;93.80
32660;DHT22;19064;47.912;12.308;2023-06-22T12:58:01;33.20;93.10
32660;DHT22;19064;47.912;12.308;2023-06-22T13:00:27;33.20;92.80
32660;DHT22;19064;47.912;12.308;2023-06-22T13:02:54;33.40;92.10
32660;DHT22;19064;47.912;12.308;2023-06-22T13:05:21;33.20;92.40
32660;DHT22;19064;47.912;12.308;2023-06-22T13:07:48;33.00;92.80
32660;DHT22;19064;47.912;12.308;2023-06-22T13:10:16;32.90;92.60
32660;DHT22;19064;47.912;12.308;2023-06-22T13:12:43;32.80;92.70
32660;DHT22;19064;47.912;12.308;2023-06-22T13:15:09;32.80;92.40
32660;DHT22;19064;47.912;12.308;2023-06-22T13:17:36;32.70;93.30
32660;DHT22;19064;47.912;12.308;2023-06-22T13:20:03;32.60;93.50
32660;DHT22;19064;47.912;12.308;2023-06-22T13:22:32;32.60;93.00
32660;DHT22;19064;47.912;12.308;2023-06-22T13:25:05;32.50;93.90
32660;DHT22;19064;47.912;12.308;2023-06-22T13:27:34;32.50;94.50
32660;DHT22;19064;47.912;12.308;2023-06-22T13:30:00;32.60;93.40
32660;DHT22;19064;47.912;12.308;2023-06-22T13:32:28;32.60;94.80
32660;DHT22;19064;47.912;12.308;2023-06-22T13:34:54;32.50;93.40
32660;DHT22;19064;47.912;12.308;2023-06-22T13:37:21;32.50;94.60
32660;DHT22;19064;47.912;12.308;2023-06-22T13:39:48;32.50;94.20
32660;DHT22;19064;47.912;12.308;2023-06-22T13:42:15;32.50;93.70
32660;DHT22;19064;47.912;12.308;2023-06-22T13:44:43;32.40;93.70
32660;DHT22;19064;47.912;12.308;2023-06-22T13:47:10;32.50;94.60
32660;DHT22;19064;47.912;12.308;2023-06-22T13:49:36;32.50;94.40
32660;DHT22;19064;47.912;12.308;2023-06-22T13:52:04;32.60;94.10
32660;DHT22;19064;47.912;12.308;2023-06-22T13:54:35;32.50;92.00
32660;DHT22;19064;47.912;12.308;2023-06-22T13:57:02;32.50;92.50
32660;DHT22;19064;47.912;12.308;2023-06-22T13:59:29;32.60;91.50
32660;DHT22;19064;47.912;12.308;2023-06-22T14:01:57;32.60;91.80
32660;DHT22;19064;47.912;12.308;2023-06-22T14:04:23;32.50;92.20
32660;DHT22;19064;47.912;12.308;2023-06-22T14:06:50;32.60;92.00
32660;DHT22;19064;47.912;12.308;2023-06-22T14:09:17;32.70;92.10
32660;DHT22;19064;47.912;12.308;2023-06-22T14:11:44;32.70;91.50
32660;DHT22;19064;47.912;12.308;2023-06-22T14:14:10;32.70;91.30
32660;DHT22;19064;47.912;12.308;2023-06-22T14:16:37;32.90;91.80
32660;DHT22;19064;47.912;12.308;2023-06-22T14:19:05;32.80;90.80
32660;DHT22;19064;47.912;12.308;2023-06-22T14:21:32;32.70;88.60
32660;DHT22;19064;47.912;12.308;2023-06-22T14:23:58;32.70;91.30
32660;DHT22;19064;47.912;12.308;2023-06-22T14:26:25;32.70;91.60
32660;DHT22;19064;47.912;12.308;2023-06-22T14:28:52;32.60;91.30
32660;DHT22;19064;47.912;12.308;2023-06-22T14:31:19;32.60;90.60
32660;DHT22;19064;47.912;12.308;2023-06-22T14:33:47;32.60;91.60
32660;DHT22;19064;47.912;12.308;2023-06-22T14:36:16;32.70;91.30
32660;DHT22;19064;47.912;12.308;2023-06-22T14:38:43;32.70;90.10
32660;DHT22;19064;47.912;12.308;2023-06-22T14:41:11;32.70;91.10
32660;DHT22;19064;47.912;12.308;2023-06-22T14:43:38;32.80;90.10
32660;DHT22;19064;47.912;12.308;2023-06-22T14:46:05;32.90;90.80
32660;DHT22;19064;47.912;12.308;2023-06-22T14:48:31;33.00;87.80
32660;DHT22;19064;47.912;12.308;2023-06-22T14:50:58;33.10;90.10
32660;DHT22;19064;47.912;12.308;2023-06-22T14:53:27;33.10;88.80
32660;DHT22;19064;47.912;12.308;2023-06-22T14:55:53;33.20;85.90
32660;DHT22;19064;47.912;12.308;2023-06-22T14:58:21;33.10;86.80
32660;DHT22;19064;47.912;12.308;2023-06-22T15:00:48;33.10;85.20
32660;DHT22;19064;47.912;12.308;2023-06-22T15:03:15;33.10;83.30
32660;DHT22;19064;47.912;12.308;2023-06-22T15:05:47;33.20;82.80
32660;DHT22;19064;47.912;12.308;2023-06-22T15:08:13;33.20;82.60
32660;DHT22;19064;47.912;12.308;2023-06-22T15:10:42;33.20;80.90
32660;DHT22;19064;47.912;12.308;2023-06-22T15:13:08;33.20;80.90
32660;DHT22;19064;47.912;12.308;2023-06-22T15:15:35;33.20;82.60
32660;DHT22;19064;47.912;12.308;2023-06-22T15:18:02;33.20;81.60